createdAt,value
2018-07-26T00:00:35.337Z,0.00
2018-07-26T00:01:35.374Z,0.00
2018-07-26T00:02:35.315Z,0.00
2018-07-26T00:03:35.318Z,0.00
2018-07-26T00:04:35.330Z,0.00
2018-07-26T00:05:35.291Z,0.00
2018-07-26T00:06:35.281Z,0.00
2018-07-26T00:07:35.262Z,0.00
2018-07-26T00:08:35.254Z,0.00
2018-07-26T00:09:35.325Z,0.00
2018-07-26T00:10:35.235Z,0.00
2018-07-26T00:11:35.224Z,0.00
2018-07-26T00:12:35.210Z,0.00
2018-07-26T00:13:35.200Z,0.00
2018-07-26T00:14:35.205Z,0.00
2018-07-26T00:15:35.227Z,0.00
2018-07-26T00:16:35.173Z,0.00
2018-07-26T00:17:35.153Z,0.00
2018-07-26T00:18:35.146Z,0.00
2018-07-26T00:19:35.144Z,0.00
2018-07-26T00:20:35.317Z,0.00
2018-07-26T00:21:35.139Z,0.00
2018-07-26T00:22:35.102Z,0.00
2018-07-26T00:23:35.088Z,0.00
2018-07-26T00:24:35.078Z,0.00
2018-07-26T00:25:35.073Z,0.00
2018-07-26T00:26:35.091Z,0.00
2018-07-26T00:27:35.108Z,0.00
2018-07-26T00:28:35.055Z,0.00
2018-07-26T00:29:35.024Z,0.00
2018-07-26T00:30:35.014Z,0.00
2018-07-26T00:31:35.161Z,0.00
2018-07-26T00:32:34.997Z,0.00
2018-07-26T00:33:34.983Z,0.00
2018-07-26T00:34:34.973Z,0.00
2018-07-26T00:35:34.988Z,0.00
2018-07-26T00:36:34.961Z,0.00
2018-07-26T00:37:35.127Z,0.00
2018-07-26T00:38:34.951Z,0.00
2018-07-26T00:39:34.921Z,0.00
2018-07-26T00:40:34.903Z,0.00
2018-07-26T00:41:34.916Z,0.00
2018-07-26T00:42:34.887Z,0.00
2018-07-26T00:43:34.906Z,0.00
2018-07-26T00:44:34.865Z,0.00
2018-07-26T00:45:34.865Z,0.00
2018-07-26T00:46:34.840Z,0.00
2018-07-26T00:47:34.834Z,0.00
2018-07-26T00:48:35.120Z,0.00
2018-07-26T00:49:34.807Z,0.00
2018-07-26T00:50:34.804Z,0.00
2018-07-26T00:51:34.788Z,0.00
2018-07-26T00:52:34.775Z,0.00
2018-07-26T00:53:34.776Z,0.00
2018-07-26T00:54:34.785Z,0.00
2018-07-26T00:55:34.744Z,0.00
2018-07-26T00:56:34.733Z,0.00
2018-07-26T00:57:34.737Z,0.00
2018-07-26T00:58:34.709Z,0.00
2018-07-26T00:59:34.846Z,0.00
2018-07-26T01:00:34.688Z,0.00
2018-07-26T01:01:34.682Z,0.00
2018-07-26T01:02:34.705Z,0.00
2018-07-26T01:03:34.664Z,0.00
2018-07-26T01:04:34.647Z,0.00
2018-07-26T01:05:34.665Z,0.00
2018-07-26T01:06:34.622Z,0.00
2018-07-26T01:07:34.615Z,0.00
2018-07-26T01:08:34.634Z,0.00
2018-07-26T01:09:34.622Z,0.00
2018-07-26T01:10:34.650Z,0.00
2018-07-26T01:11:34.593Z,0.00
2018-07-26T01:12:34.563Z,0.00
2018-07-26T01:13:34.566Z,0.00
2018-07-26T01:14:34.546Z,0.00
2018-07-26T01:15:34.523Z,0.00
2018-07-26T01:16:34.544Z,0.00
2018-07-26T01:17:34.503Z,0.00
2018-07-26T01:18:34.494Z,0.00
2018-07-26T01:19:34.827Z,0.00
2018-07-26T01:20:34.468Z,0.00
2018-07-26T01:21:34.677Z,0.00
2018-07-26T01:22:34.471Z,0.00
2018-07-26T01:23:34.449Z,0.00
2018-07-26T01:24:34.428Z,0.00
2018-07-26T01:25:34.460Z,0.00
2018-07-26T01:26:34.401Z,0.00
2018-07-26T01:27:34.435Z,0.00
2018-07-26T01:28:34.386Z,0.00
2018-07-26T01:29:34.372Z,0.00
2018-07-26T01:30:34.364Z,0.00
2018-07-26T01:31:34.368Z,0.00
2018-07-26T01:32:34.381Z,0.00
2018-07-26T01:33:34.327Z,0.00
2018-07-26T01:34:34.323Z,0.00
2018-07-26T01:35:34.317Z,0.00
2018-07-26T01:36:34.303Z,0.00
2018-07-26T01:37:34.294Z,0.00
2018-07-26T01:38:34.312Z,0.00
2018-07-26T01:39:34.258Z,0.00
2018-07-26T01:40:34.263Z,0.00
2018-07-26T01:41:34.244Z,0.00
2018-07-26T01:42:34.235Z,0.00
2018-07-26T01:43:34.360Z,0.00
2018-07-26T01:44:34.226Z,0.00
2018-07-26T01:45:34.199Z,0.00
2018-07-26T01:46:34.191Z,0.00
2018-07-26T01:47:34.173Z,0.00
2018-07-26T01:48:34.178Z,0.00
2018-07-26T01:49:34.188Z,0.00
2018-07-26T01:50:34.138Z,0.00
2018-07-26T01:51:34.138Z,0.00
2018-07-26T01:52:34.131Z,0.00
2018-07-26T01:53:34.122Z,0.00
2018-07-26T01:54:34.415Z,0.00
2018-07-26T01:55:34.088Z,0.00
2018-07-26T01:56:34.078Z,0.00
2018-07-26T01:57:34.077Z,0.00
2018-07-26T01:58:34.054Z,0.00
2018-07-26T01:59:34.066Z,0.00
2018-07-26T02:00:34.094Z,0.00
2018-07-26T02:01:34.078Z,0.00
2018-07-26T02:02:34.007Z,0.00
2018-07-26T02:03:34.008Z,0.00
2018-07-26T02:04:33.988Z,0.00
2018-07-26T02:05:33.985Z,0.00
2018-07-26T02:06:34.006Z,0.00
2018-07-26T02:07:33.953Z,0.00
2018-07-26T02:08:33.949Z,0.00
2018-07-26T02:09:33.935Z,0.00
2018-07-26T02:10:33.920Z,0.00
2018-07-26T02:11:33.981Z,0.00
2018-07-26T02:12:33.903Z,0.00
2018-07-26T02:13:33.885Z,0.00
2018-07-26T02:14:33.881Z,0.00
2018-07-26T02:15:33.862Z,0.00
2018-07-26T02:16:33.854Z,0.00
2018-07-26T02:17:33.908Z,0.00
2018-07-26T02:18:33.830Z,0.00
2018-07-26T02:19:33.845Z,0.00
2018-07-26T02:20:33.819Z,0.00
2018-07-26T02:21:33.804Z,0.00
2018-07-26T02:22:33.854Z,0.00
2018-07-26T02:23:33.807Z,0.00
2018-07-26T02:24:33.762Z,0.00
2018-07-26T02:25:33.769Z,0.00
2018-07-26T02:26:33.753Z,0.00
2018-07-26T02:27:33.732Z,0.00
2018-07-26T02:28:33.800Z,0.00
2018-07-26T02:29:33.731Z,0.00
2018-07-26T02:30:33.703Z,0.00
2018-07-26T02:31:33.694Z,0.00
2018-07-26T02:32:33.698Z,0.00
2018-07-26T02:33:33.676Z,0.00
2018-07-26T02:34:33.702Z,0.00
2018-07-26T02:35:33.643Z,0.00
2018-07-26T02:36:33.632Z,0.00
2018-07-26T02:37:33.640Z,0.00
2018-07-26T02:38:33.609Z,0.00
2018-07-26T02:39:33.647Z,0.00
2018-07-26T02:40:33.609Z,0.00
2018-07-26T02:41:34.273Z,0.00
2018-07-26T02:42:33.566Z,0.00
2018-07-26T02:43:33.563Z,0.00
2018-07-26T02:44:33.592Z,0.00
2018-07-26T02:45:33.537Z,0.00
2018-07-26T02:46:33.552Z,0.00
2018-07-26T02:47:33.510Z,0.00
2018-07-26T02:48:33.523Z,0.00
2018-07-26T02:49:33.507Z,0.00
2018-07-26T02:50:33.944Z,0.00
2018-07-26T02:51:33.483Z,0.00
2018-07-26T02:52:33.460Z,0.00
2018-07-26T02:53:33.445Z,0.00
2018-07-26T02:54:33.437Z,0.00
2018-07-26T02:55:33.447Z,0.00
2018-07-26T02:56:33.449Z,0.00
2018-07-26T02:57:33.410Z,0.00
2018-07-26T02:58:33.402Z,0.00
2018-07-26T02:59:33.410Z,0.00
2018-07-26T03:00:33.376Z,0.00
2018-07-26T03:01:33.427Z,0.00
2018-07-26T03:02:33.358Z,0.00
2018-07-26T03:03:33.341Z,0.00
2018-07-26T03:04:33.328Z,0.00
2018-07-26T03:05:33.412Z,0.00
2018-07-26T03:06:33.316Z,0.00
2018-07-26T03:07:33.329Z,4.00
2018-07-26T03:08:33.310Z,4.00
2018-07-26T03:09:33.284Z,0.00
2018-07-26T03:10:33.273Z,4.00
2018-07-26T03:11:33.252Z,4.00
2018-07-26T03:12:33.350Z,4.00
2018-07-26T03:13:33.233Z,4.00
2018-07-26T03:14:33.223Z,4.00
2018-07-26T03:15:33.213Z,8.00
2018-07-26T03:16:33.268Z,8.00
2018-07-26T03:17:33.239Z,8.00
2018-07-26T03:18:33.181Z,8.00
2018-07-26T03:19:33.163Z,12.00
2018-07-26T03:20:33.786Z,16.00
2018-07-26T03:21:33.172Z,16.00
2018-07-26T03:22:33.134Z,16.00
2018-07-26T03:23:33.160Z,24.00
2018-07-26T03:24:33.122Z,28.00
2018-07-26T03:25:33.104Z,32.00
2018-07-26T03:26:33.126Z,36.00
2018-07-26T03:27:33.083Z,44.00
2018-07-26T03:28:33.132Z,48.00
2018-07-26T03:29:33.071Z,56.00
2018-07-26T03:30:33.045Z,64.00
2018-07-26T03:31:33.043Z,72.00
2018-07-26T03:32:33.022Z,80.00
2018-07-26T03:33:33.040Z,92.00
2018-07-26T03:34:33.047Z,108.00
2018-07-26T03:35:33.004Z,120.00
2018-07-26T03:36:32.980Z,132.00
2018-07-26T03:37:32.972Z,148.00
2018-07-26T03:38:32.971Z,164.00
2018-07-26T03:39:33.001Z,184.00
2018-07-26T03:40:32.958Z,200.00
2018-07-26T03:41:32.975Z,220.00
2018-07-26T03:42:32.914Z,244.00
2018-07-26T03:43:32.958Z,268.00
2018-07-26T03:44:32.900Z,288.00
2018-07-26T03:45:32.934Z,316.00
2018-07-26T03:46:32.874Z,340.00
2018-07-26T03:47:32.876Z,368.00
2018-07-26T03:48:32.863Z,396.00
2018-07-26T03:49:32.839Z,424.00
2018-07-26T03:50:32.871Z,456.00
2018-07-26T03:51:32.879Z,488.00
2018-07-26T03:52:32.811Z,520.00
2018-07-26T03:53:32.801Z,552.00
2018-07-26T03:54:32.813Z,588.00
2018-07-26T03:55:32.846Z,628.00
2018-07-26T03:56:32.770Z,664.00
2018-07-26T03:57:32.765Z,700.00
2018-07-26T03:58:32.750Z,740.00
2018-07-26T03:59:32.756Z,780.00
2018-07-26T04:00:32.837Z,820.00
2018-07-26T04:01:32.711Z,860.00
2018-07-26T04:02:32.712Z,900.00
2018-07-26T04:03:32.689Z,944.00
2018-07-26T04:04:32.685Z,980.00
2018-07-26T04:05:32.688Z,1024.00
2018-07-26T04:06:32.697Z,1064.00
2018-07-26T04:07:32.678Z,1104.00
2018-07-26T04:08:32.638Z,1148.00
2018-07-26T04:09:32.637Z,1188.00
2018-07-26T04:10:32.622Z,1232.00
2018-07-26T04:11:32.801Z,1276.00
2018-07-26T04:12:32.605Z,1316.00
2018-07-26T04:13:32.585Z,1360.00
2018-07-26T04:14:32.571Z,1400.00
2018-07-26T04:15:32.573Z,1440.00
2018-07-26T04:16:32.574Z,1480.00
2018-07-26T04:17:32.572Z,1520.00
2018-07-26T04:18:32.526Z,1560.00
2018-07-26T04:19:32.532Z,1600.00
2018-07-26T04:20:32.514Z,1640.00
2018-07-26T04:21:32.527Z,1676.00
2018-07-26T04:22:32.537Z,1716.00
2018-07-26T04:23:32.478Z,1752.00
2018-07-26T04:24:32.463Z,1792.00
2018-07-26T04:25:32.471Z,1828.00
2018-07-26T04:26:32.456Z,1868.00
2018-07-26T04:27:32.448Z,1904.00
2018-07-26T04:28:32.459Z,1940.00
2018-07-26T04:29:32.408Z,1980.00
2018-07-26T04:30:32.424Z,2020.00
2018-07-26T04:31:32.389Z,2056.00
2018-07-26T04:32:32.389Z,2092.00
2018-07-26T04:33:32.404Z,2132.00
2018-07-26T04:34:32.376Z,2172.00
2018-07-26T04:35:32.345Z,2212.00
2018-07-26T04:36:32.347Z,2252.00
2018-07-26T04:37:32.345Z,2292.00
2018-07-26T04:38:32.354Z,2324.00
2018-07-26T04:39:32.301Z,2364.00
2018-07-26T04:40:32.289Z,2396.00
2018-07-26T04:41:32.274Z,2436.00
2018-07-26T04:42:32.269Z,2468.00
2018-07-26T04:43:32.261Z,2504.00
2018-07-26T04:44:32.382Z,2540.00
2018-07-26T04:45:32.242Z,2576.00
2018-07-26T04:46:32.223Z,2612.00
2018-07-26T04:47:32.231Z,2644.00
2018-07-26T04:48:32.205Z,2676.00
2018-07-26T04:49:32.198Z,2712.00
2018-07-26T04:50:32.261Z,2752.00
2018-07-26T04:51:32.247Z,2788.00
2018-07-26T04:52:32.158Z,2824.00
2018-07-26T04:53:32.151Z,2856.00
2018-07-26T04:54:32.196Z,2892.00
2018-07-26T04:55:32.155Z,2928.00
2018-07-26T04:56:32.171Z,2968.00
2018-07-26T04:57:32.115Z,2996.00
2018-07-26T04:58:32.099Z,3040.00
2018-07-26T04:59:32.088Z,3076.00
2018-07-26T05:00:32.234Z,3104.00
2018-07-26T05:01:32.069Z,3136.00
2018-07-26T05:02:32.047Z,3168.00
2018-07-26T05:03:32.039Z,3200.00
2018-07-26T05:04:32.040Z,3232.00
2018-07-26T05:05:32.015Z,3264.00
2018-07-26T05:06:32.063Z,3296.00
2018-07-26T05:07:32.012Z,3328.00
2018-07-26T05:08:31.986Z,3360.00
2018-07-26T05:09:31.974Z,3384.00
2018-07-26T05:10:31.976Z,3416.00
2018-07-26T05:11:31.989Z,3444.00
2018-07-26T05:12:31.944Z,3476.00
2018-07-26T05:13:31.945Z,3504.00
2018-07-26T05:14:31.956Z,3532.00
2018-07-26T05:15:31.900Z,3564.00
2018-07-26T05:16:31.891Z,3592.00
2018-07-26T05:17:32.023Z,3620.00
2018-07-26T05:18:31.950Z,3644.00
2018-07-26T05:19:31.868Z,3664.00
2018-07-26T05:20:31.848Z,3692.00
2018-07-26T05:21:32.018Z,3712.00
2018-07-26T05:22:31.823Z,3736.00
2018-07-26T05:23:32.334Z,3760.00
2018-07-26T05:24:31.824Z,3788.00
2018-07-26T05:25:31.792Z,3816.00
2018-07-26T05:26:31.780Z,3840.00
2018-07-26T05:27:31.777Z,3864.00
2018-07-26T05:28:31.815Z,3888.00
2018-07-26T05:29:31.819Z,3908.00
2018-07-26T05:30:31.743Z,3936.00
2018-07-26T05:31:31.736Z,3956.00
2018-07-26T05:32:31.718Z,3980.00
2018-07-26T05:33:31.919Z,4000.00
2018-07-26T05:34:31.700Z,4012.00
2018-07-26T05:35:31.691Z,4032.00
2018-07-26T05:36:31.679Z,4056.00
2018-07-26T05:37:31.670Z,4076.00
2018-07-26T05:38:31.653Z,4096.00
2018-07-26T05:39:31.726Z,4120.00
2018-07-26T05:40:31.629Z,4140.00
2018-07-26T05:41:31.624Z,4164.00
2018-07-26T05:42:31.603Z,4180.00
2018-07-26T05:43:31.646Z,4204.00
2018-07-26T05:44:31.582Z,4220.00
2018-07-26T05:45:31.622Z,4236.00
2018-07-26T05:46:31.562Z,4252.00
2018-07-26T05:47:31.557Z,4272.00
2018-07-26T05:48:31.542Z,4288.00
2018-07-26T05:49:31.531Z,4300.00
2018-07-26T05:50:31.556Z,4316.00
2018-07-26T05:51:31.508Z,4336.00
2018-07-26T05:52:31.494Z,4360.00
2018-07-26T05:53:31.532Z,4388.00
2018-07-26T05:54:31.478Z,4412.00
2018-07-26T05:55:31.600Z,4436.00
2018-07-26T05:56:31.720Z,4452.00
2018-07-26T05:57:31.450Z,4476.00
2018-07-26T05:58:31.430Z,4492.00
2018-07-26T05:59:31.432Z,4512.00
2018-07-26T06:00:31.407Z,4532.00
2018-07-26T06:01:31.457Z,4552.00
2018-07-26T06:02:31.398Z,4572.00
2018-07-26T06:03:31.409Z,4592.00
2018-07-26T06:04:31.371Z,4608.00
2018-07-26T06:05:31.363Z,4628.00
2018-07-26T06:06:31.340Z,4640.00
2018-07-26T06:07:31.386Z,4656.00
2018-07-26T06:08:31.342Z,4672.00
2018-07-26T06:09:31.325Z,4684.00
2018-07-26T06:10:31.313Z,4704.00
2018-07-26T06:11:31.285Z,4720.00
2018-07-26T06:12:31.357Z,4744.00
2018-07-26T06:13:31.269Z,4768.00
2018-07-26T06:14:31.268Z,4800.00
2018-07-26T06:15:31.244Z,4820.00
2018-07-26T06:16:31.243Z,4840.00
2018-07-26T06:17:31.308Z,4860.00
2018-07-26T06:18:31.252Z,4884.00
2018-07-26T06:19:31.205Z,4904.00
2018-07-26T06:20:31.267Z,4936.00
2018-07-26T06:21:31.179Z,4972.00
2018-07-26T06:22:31.183Z,5012.00
2018-07-26T06:23:31.371Z,5052.00
2018-07-26T06:24:31.148Z,5096.00
2018-07-26T06:25:31.136Z,5136.00
2018-07-26T06:26:31.126Z,5172.00
2018-07-26T06:27:31.118Z,5208.00
2018-07-26T06:28:31.118Z,5232.00
2018-07-26T06:29:31.279Z,5260.00
2018-07-26T06:30:31.087Z,5284.00
2018-07-26T06:31:31.072Z,5316.00
2018-07-26T06:32:31.060Z,5348.00
2018-07-26T06:33:31.132Z,5380.00
2018-07-26T06:34:31.138Z,5404.00
2018-07-26T06:35:31.066Z,5428.00
2018-07-26T06:36:31.024Z,5472.00
2018-07-26T06:37:31.075Z,5504.00
2018-07-26T06:38:30.999Z,5540.00
2018-07-26T06:39:31.088Z,5576.00
2018-07-26T06:40:31.008Z,5612.00
2018-07-26T06:41:31.129Z,5620.00
2018-07-26T06:42:30.962Z,5648.00
2018-07-26T06:43:30.989Z,5676.00
2018-07-26T06:44:30.932Z,5700.00
2018-07-26T06:45:31.116Z,5732.00
2018-07-26T06:46:30.920Z,5736.00
2018-07-26T06:47:30.949Z,5752.00
2018-07-26T06:48:30.899Z,5776.00
2018-07-26T06:49:30.877Z,5784.00
2018-07-26T06:50:30.890Z,5796.00
2018-07-26T06:51:31.248Z,5828.00
2018-07-26T06:52:30.857Z,5840.00
2018-07-26T06:53:30.842Z,5864.00
2018-07-26T06:54:30.828Z,5888.00
2018-07-26T06:55:30.822Z,5920.00
2018-07-26T06:56:30.804Z,5952.00
2018-07-26T06:57:30.831Z,5988.00
2018-07-26T06:58:30.789Z,6020.00
2018-07-26T06:59:30.775Z,6048.00
2018-07-26T07:00:30.771Z,6072.00
2018-07-26T07:01:30.751Z,6104.00
2018-07-26T07:02:30.799Z,6132.00
2018-07-26T07:03:30.728Z,6152.00
2018-07-26T07:04:30.714Z,6168.00
2018-07-26T07:05:30.711Z,6188.00
2018-07-26T07:06:30.692Z,6216.00
2018-07-26T07:07:30.889Z,6232.00
2018-07-26T07:08:30.688Z,6256.00
2018-07-26T07:09:30.664Z,6288.00
2018-07-26T07:10:30.667Z,6296.00
2018-07-26T07:11:30.650Z,6320.00
2018-07-26T07:12:30.629Z,6372.00
2018-07-26T07:13:30.681Z,6364.00
2018-07-26T07:14:30.623Z,6372.00
2018-07-26T07:15:30.599Z,6388.00
2018-07-26T07:16:30.588Z,6408.00
2018-07-26T07:17:30.656Z,6412.00
2018-07-26T07:18:30.571Z,6400.00
2018-07-26T07:19:30.594Z,6408.00
2018-07-26T07:20:30.619Z,6416.00
2018-07-26T07:21:30.544Z,6436.00
2018-07-26T07:22:30.546Z,6452.00
2018-07-26T07:23:30.510Z,6444.00
2018-07-26T07:24:30.575Z,6452.00
2018-07-26T07:25:30.493Z,6460.00
2018-07-26T07:26:30.479Z,6472.00
2018-07-26T07:27:30.531Z,6496.00
2018-07-26T07:28:30.486Z,6516.00
2018-07-26T07:29:30.486Z,6524.00
2018-07-26T07:30:30.455Z,6544.00
2018-07-26T07:31:30.437Z,6536.00
2018-07-26T07:32:30.413Z,6548.00
2018-07-26T07:33:30.408Z,6608.00
2018-07-26T07:34:30.582Z,6644.00
2018-07-26T07:35:30.430Z,6668.00
2018-07-26T07:36:30.408Z,6716.00
2018-07-26T07:37:30.360Z,6776.00
2018-07-26T07:38:30.351Z,6816.00
2018-07-26T07:39:30.346Z,6856.00
2018-07-26T07:40:30.534Z,6892.00
2018-07-26T07:41:30.334Z,6904.00
2018-07-26T07:42:30.316Z,6928.00
2018-07-26T07:43:30.310Z,6992.00
2018-07-26T07:44:30.286Z,7040.00
2018-07-26T07:45:30.278Z,6396.00
2018-07-26T07:46:30.360Z,6392.00
2018-07-26T07:47:30.289Z,6392.00
2018-07-26T07:48:30.247Z,6432.00
2018-07-26T07:49:30.233Z,6448.00
2018-07-26T07:50:30.222Z,6452.00
2018-07-26T07:51:30.220Z,6496.00
2018-07-26T07:52:30.234Z,6544.00
2018-07-26T07:53:30.185Z,6592.00
2018-07-26T07:54:30.177Z,6684.00
2018-07-26T07:55:30.166Z,6840.00
2018-07-26T07:56:30.160Z,7020.00
2018-07-26T07:57:30.182Z,7216.00
2018-07-26T07:58:30.136Z,7508.00
2018-07-26T07:59:30.155Z,9860.00
2018-07-26T08:00:30.113Z,28960.00
2018-07-26T08:01:30.101Z,54272.00
2018-07-26T08:02:30.145Z,73568.00
2018-07-26T08:03:30.079Z,76896.00
2018-07-26T08:04:30.067Z,76992.00
2018-07-26T08:05:30.058Z,77696.00
2018-07-26T08:06:30.049Z,78368.00
2018-07-26T08:07:30.037Z,78528.00
2018-07-26T08:08:30.214Z,78976.00
2018-07-26T08:09:30.027Z,80992.00
2018-07-26T08:10:30.012Z,82400.00
2018-07-26T08:11:30.001Z,84160.00
2018-07-26T08:12:30.019Z,83648.00
2018-07-26T08:13:29.971Z,81600.00
2018-07-26T08:14:29.995Z,80672.00
2018-07-26T08:15:29.954Z,81248.00
2018-07-26T08:16:29.940Z,82464.00
2018-07-26T08:17:29.934Z,84256.00
2018-07-26T08:18:29.923Z,85024.00
2018-07-26T08:19:29.950Z,83872.00
2018-07-26T08:20:29.914Z,84096.00
2018-07-26T08:21:29.892Z,84704.00
2018-07-26T08:22:29.890Z,86144.00
2018-07-26T08:23:29.888Z,87552.00
2018-07-26T08:24:29.999Z,86784.00
2018-07-26T08:25:29.851Z,87264.00
2018-07-26T08:26:29.851Z,86688.00
2018-07-26T08:27:29.855Z,85824.00
2018-07-26T08:28:29.823Z,85376.00
2018-07-26T08:29:29.860Z,84928.00
2018-07-26T08:30:30.046Z,86208.00
2018-07-26T08:31:29.798Z,88736.00
2018-07-26T08:32:29.785Z,90272.00
2018-07-26T08:33:29.782Z,90752.00
2018-07-26T08:34:29.768Z,90752.00
2018-07-26T08:35:29.765Z,91392.00
2018-07-26T08:36:29.780Z,90496.00
2018-07-26T08:37:29.733Z,90016.00
2018-07-26T08:38:29.737Z,89376.00
2018-07-26T08:39:29.733Z,89120.00
2018-07-26T08:40:29.705Z,89184.00
2018-07-26T08:41:29.740Z,90464.00
2018-07-26T08:42:29.684Z,90592.00
2018-07-26T08:43:29.677Z,91168.00
2018-07-26T08:44:29.666Z,90656.00
2018-07-26T08:45:29.691Z,91264.00
2018-07-26T08:46:29.879Z,92224.00
2018-07-26T08:47:29.640Z,92224.00
2018-07-26T08:48:29.633Z,89888.00
2018-07-26T08:49:29.625Z,88512.00
2018-07-26T08:50:29.610Z,89696.00
2018-07-26T08:51:29.604Z,89248.00
2018-07-26T08:52:29.634Z,89856.00
2018-07-26T08:53:29.583Z,91936.00
2018-07-26T08:54:29.579Z,94112.00
2018-07-26T08:55:29.609Z,92384.00
2018-07-26T08:56:29.555Z,92064.00
2018-07-26T08:57:29.547Z,91520.00
2018-07-26T08:58:29.591Z,95520.00
2018-07-26T08:59:29.560Z,101920.00
2018-07-26T09:00:29.674Z,102144.00
2018-07-26T09:01:29.523Z,100608.00
2018-07-26T09:02:29.515Z,97440.00
2018-07-26T09:03:29.495Z,95328.00
2018-07-26T09:04:29.544Z,91680.00
2018-07-26T09:05:29.492Z,95904.00
2018-07-26T09:06:29.468Z,97216.00
2018-07-26T09:07:29.458Z,98304.00
2018-07-26T09:08:29.457Z,99584.00
2018-07-26T09:09:29.576Z,101504.00
2018-07-26T09:10:29.436Z,101728.00
2018-07-26T09:11:29.472Z,99072.00
2018-07-26T09:12:29.413Z,98496.00
2018-07-26T09:13:29.492Z,99392.00
2018-07-26T09:14:29.412Z,101536.00
2018-07-26T09:15:29.430Z,101024.00
2018-07-26T09:16:29.379Z,105760.00
2018-07-26T09:17:29.379Z,107392.00
2018-07-26T09:18:29.371Z,106656.00
2018-07-26T09:19:29.356Z,105632.00
2018-07-26T09:20:29.349Z,107840.00
2018-07-26T09:21:29.402Z,108480.00
2018-07-26T09:22:29.329Z,108832.00
2018-07-26T09:23:29.319Z,109408.00
2018-07-26T09:24:29.353Z,107488.00
2018-07-26T09:25:29.324Z,107616.00
2018-07-26T09:26:29.331Z,108736.00
2018-07-26T09:27:29.312Z,108416.00
2018-07-26T09:28:29.282Z,110368.00
2018-07-26T09:29:29.271Z,111456.00
2018-07-26T09:30:29.265Z,111360.00
2018-07-26T09:31:29.470Z,115104.00
2018-07-26T09:32:29.249Z,113024.00
2018-07-26T09:33:29.236Z,100992.00
2018-07-26T09:34:29.231Z,109088.00
2018-07-26T09:35:29.266Z,110976.00
2018-07-26T09:36:29.222Z,22592.00
2018-07-26T09:37:29.400Z,33408.00
2018-07-26T09:38:29.208Z,56352.00
2018-07-26T09:39:29.190Z,33472.00
2018-07-26T09:40:29.193Z,22048.00
2018-07-26T09:41:29.173Z,49312.00
2018-07-26T09:42:29.163Z,117536.00
2018-07-26T09:43:29.187Z,73760.00
2018-07-26T09:44:29.153Z,109888.00
2018-07-26T09:45:29.248Z,83104.00
2018-07-26T09:46:29.135Z,20128.00
2018-07-26T09:47:29.223Z,37952.00
2018-07-26T09:48:29.150Z,115520.00
2018-07-26T09:49:29.104Z,112448.00
2018-07-26T09:50:29.093Z,112672.00
2018-07-26T09:51:29.092Z,111584.00
2018-07-26T09:52:29.080Z,109088.00
2018-07-26T09:53:29.262Z,111744.00
2018-07-26T09:54:29.065Z,112864.00
2018-07-26T09:55:29.058Z,79456.00
2018-07-26T09:56:29.042Z,26048.00
2018-07-26T09:57:29.037Z,112384.00
2018-07-26T09:58:29.037Z,117824.00
2018-07-26T09:59:29.224Z,19744.00
2018-07-26T10:00:29.122Z,19264.00
2018-07-26T10:01:29.016Z,17888.00
2018-07-26T10:02:28.991Z,17100.00
2018-07-26T10:03:28.995Z,19168.00
2018-07-26T10:04:28.973Z,115968.00
2018-07-26T10:05:29.019Z,20736.00
2018-07-26T10:06:28.974Z,101280.00
2018-07-26T10:07:28.953Z,126784.00
2018-07-26T10:08:28.953Z,118176.00
2018-07-26T10:09:28.938Z,22368.00
2018-07-26T10:10:28.926Z,17460.00
2018-07-26T10:11:29.019Z,36992.00
2018-07-26T10:12:28.906Z,117248.00
2018-07-26T10:13:28.982Z,115936.00
2018-07-26T10:14:28.893Z,110176.00
2018-07-26T10:15:28.891Z,110944.00
2018-07-26T10:16:28.909Z,100672.00
2018-07-26T10:17:28.896Z,91232.00
2018-07-26T10:18:28.868Z,90880.00
2018-07-26T10:19:28.851Z,90944.00
2018-07-26T10:20:28.856Z,102528.00
2018-07-26T10:21:28.999Z,113152.00
2018-07-26T10:22:28.830Z,117216.00
2018-07-26T10:23:28.816Z,119008.00
2018-07-26T10:24:28.807Z,109504.00
2018-07-26T10:25:28.804Z,116192.00
2018-07-26T10:26:28.795Z,118592.00
2018-07-26T10:27:28.915Z,118912.00
2018-07-26T10:28:28.774Z,33600.00
2018-07-26T10:29:28.767Z,19584.00
2018-07-26T10:30:28.768Z,120864.00
2018-07-26T10:31:28.752Z,91904.00
2018-07-26T10:32:28.745Z,113088.00
2018-07-26T10:33:28.767Z,118208.00
2018-07-26T10:34:28.725Z,115200.00
2018-07-26T10:35:28.717Z,111552.00
2018-07-26T10:36:28.716Z,118560.00
2018-07-26T10:37:28.700Z,105440.00
2018-07-26T10:38:28.725Z,120224.00
2018-07-26T10:39:28.701Z,110464.00
2018-07-26T10:40:28.687Z,117824.00
2018-07-26T10:41:28.669Z,113856.00
2018-07-26T10:42:28.696Z,64128.00
2018-07-26T10:43:28.693Z,21536.00
2018-07-26T10:44:28.755Z,20320.00
2018-07-26T10:45:28.638Z,22432.00
2018-07-26T10:46:28.629Z,19200.00
2018-07-26T10:47:28.646Z,15972.00
2018-07-26T10:48:28.636Z,17412.00
2018-07-26T10:49:28.902Z,25280.00
2018-07-26T10:50:28.613Z,118528.00
2018-07-26T10:51:29.781Z,116448.00
2018-07-26T10:52:28.581Z,117952.00
2018-07-26T10:53:28.571Z,112064.00
2018-07-26T10:54:28.560Z,118496.00
2018-07-26T10:55:28.631Z,116480.00
2018-07-26T10:56:28.545Z,114624.00
2018-07-26T10:57:28.534Z,117408.00
2018-07-26T10:58:28.557Z,114656.00
2018-07-26T10:59:28.544Z,118784.00
2018-07-26T11:00:28.598Z,118208.00
2018-07-26T11:01:28.537Z,116736.00
2018-07-26T11:02:28.531Z,117184.00
2018-07-26T11:03:28.488Z,113504.00
2018-07-26T11:04:28.492Z,113344.00
2018-07-26T11:05:28.487Z,116512.00
2018-07-26T11:06:28.652Z,116000.00
2018-07-26T11:07:28.466Z,113120.00
2018-07-26T11:08:28.466Z,32768.00
2018-07-26T11:09:28.515Z,124960.00
2018-07-26T11:10:28.506Z,122112.00
2018-07-26T11:11:28.429Z,123072.00
2018-07-26T11:12:28.468Z,123808.00
2018-07-26T11:13:28.425Z,123808.00
2018-07-26T11:14:28.411Z,122272.00
2018-07-26T11:15:28.511Z,122976.00
2018-07-26T11:16:28.448Z,123040.00
2018-07-26T11:17:28.391Z,121024.00
2018-07-26T11:18:28.421Z,124352.00
2018-07-26T11:19:28.365Z,124480.00
2018-07-26T11:20:28.362Z,147456.00
2018-07-26T11:21:28.356Z,120992.00
2018-07-26T11:22:28.362Z,108224.00
2018-07-26T11:23:28.554Z,104608.00
2018-07-26T11:24:28.330Z,78720.00
2018-07-26T11:25:28.365Z,103552.00
2018-07-26T11:26:28.329Z,112768.00
2018-07-26T11:27:28.308Z,123104.00
2018-07-26T11:28:28.351Z,135616.00
2018-07-26T11:29:28.371Z,105952.00
2018-07-26T11:30:28.288Z,110432.00
2018-07-26T11:31:28.835Z,122464.00
2018-07-26T11:32:28.333Z,119168.00
2018-07-26T11:33:28.270Z,20544.00
2018-07-26T11:34:28.775Z,18592.00
2018-07-26T11:35:28.293Z,19136.00
2018-07-26T11:36:28.263Z,110080.00
2018-07-26T11:37:28.240Z,120960.00
2018-07-26T11:38:28.230Z,119680.00
2018-07-26T11:39:28.227Z,118336.00
2018-07-26T11:40:28.263Z,115712.00
2018-07-26T11:41:28.266Z,115200.00
2018-07-26T11:42:28.201Z,115584.00
2018-07-26T11:43:28.204Z,116064.00
2018-07-26T11:44:28.189Z,117696.00
2018-07-26T11:45:28.219Z,118240.00
2018-07-26T11:46:28.173Z,119168.00
2018-07-26T11:47:28.165Z,118464.00
2018-07-26T11:48:28.157Z,120256.00
2018-07-26T11:49:28.150Z,120416.00
2018-07-26T11:50:28.485Z,121408.00
2018-07-26T11:51:28.140Z,120096.00
2018-07-26T11:52:28.130Z,117536.00
2018-07-26T11:53:28.121Z,117888.00
2018-07-26T11:54:28.121Z,119264.00
2018-07-26T11:55:28.113Z,121088.00
2018-07-26T11:56:28.141Z,121824.00
2018-07-26T11:57:28.095Z,120832.00
2018-07-26T11:58:28.101Z,123424.00
2018-07-26T11:59:28.084Z,122656.00
2018-07-26T12:00:28.091Z,116864.00
2018-07-26T12:01:28.071Z,19968.00
2018-07-26T12:02:28.125Z,19680.00
2018-07-26T12:03:28.056Z,25120.00
2018-07-26T12:04:28.042Z,118144.00
2018-07-26T12:05:28.040Z,120992.00
2018-07-26T12:06:28.029Z,122848.00
2018-07-26T12:07:28.034Z,121632.00
2018-07-26T12:08:28.043Z,21280.00
2018-07-26T12:09:28.009Z,19584.00
2018-07-26T12:10:28.025Z,18688.00
2018-07-26T12:11:28.009Z,17792.00
2018-07-26T12:12:27.984Z,17824.00
2018-07-26T12:13:28.156Z,18368.00